Notice: Undefined index: humidity_percent in /home/weerinem/domains/weerinemmerhout.nl/public_html/pwsWD/metar_load_funct.php on line 103
Weather34 Metar Aviation Weather Data Popup
8°C Temp
'.PHP_EOL;
8°C Dauwpunt
% Vochtigheid
Temperatuur
8 KM/H
5 MPH
4 KTS
290°
West Noord
West

Wind Snelheid
Mist
Luchtdruk 1030.91 (hPa)- 30.44 (in)
Zicht 0.9 (mi) - 1.4 (km)

Huidig weer
EHGG
Locatie Eelde 50(km)
Metar:
EHGG 220155Z AUTO 29004KT 1400 R23/P2000N BR BKN001 OVC002 08/08 Q1031
Fri 22nd February 02:55 am

Vliegveld
  Metar Aviation API Data Provided by https://www.checkwx.com/